sensor_id;sensor_type;location;lat;lon;timestamp;P1;durP1;ratioP1;P2;durP2;ratioP2
76176;SDS011;64938;47.696;8.066;2022-11-24T00:00:00;9.27;;;3.87;;
76176;SDS011;64938;47.696;8.066;2022-11-24T00:02:27;10.70;;;3.67;;
76176;SDS011;64938;47.696;8.066;2022-11-24T00:04:53;9.60;;;4.07;;
76176;SDS011;64938;47.696;8.066;2022-11-24T00:07:19;11.60;;;4.30;;
76176;SDS011;64938;47.696;8.066;2022-11-24T00:09:44;9.43;;;4.00;;
76176;SDS011;64938;47.696;8.066;2022-11-24T00:12:10;7.87;;;4.27;;
76176;SDS011;64938;47.696;8.066;2022-11-24T00:14:36;12.10;;;4.37;;
76176;SDS011;64938;47.696;8.066;2022-11-24T00:17:03;10.43;;;4.50;;
76176;SDS011;64938;47.696;8.066;2022-11-24T00:19:29;14.67;;;4.50;;
76176;SDS011;64938;47.696;8.066;2022-11-24T00:21:54;8.90;;;4.00;;
76176;SDS011;64938;47.696;8.066;2022-11-24T00:24:20;10.70;;;4.40;;
76176;SDS011;64938;47.696;8.066;2022-11-24T00:26:46;8.73;;;4.20;;
76176;SDS011;64938;47.696;8.066;2022-11-24T00:29:12;10.07;;;4.37;;
76176;SDS011;64938;47.696;8.066;2022-11-24T00:31:39;6.30;;;4.57;;
76176;SDS011;64938;47.696;8.066;2022-11-24T00:34:08;12.17;;;5.60;;
76176;SDS011;64938;47.696;8.066;2022-11-24T00:36:35;9.30;;;4.70;;
76176;SDS011;64938;47.696;8.066;2022-11-24T00:39:03;9.30;;;4.20;;
76176;SDS011;64938;47.696;8.066;2022-11-24T00:41:30;14.40;;;6.20;;
76176;SDS011;64938;47.696;8.066;2022-11-24T00:43:56;12.50;;;4.30;;
76176;SDS011;64938;47.696;8.066;2022-11-24T00:46:22;18.10;;;4.70;;
76176;SDS011;64938;47.696;8.066;2022-11-24T00:48:48;9.10;;;3.63;;
76176;SDS011;64938;47.696;8.066;2022-11-24T00:51:15;9.90;;;3.93;;
76176;SDS011;64938;47.696;8.066;2022-11-24T00:53:42;9.17;;;3.60;;
76176;SDS011;64938;47.696;8.066;2022-11-24T00:56:08;12.20;;;3.67;;
76176;SDS011;64938;47.696;8.066;2022-11-24T00:58:34;12.60;;;3.63;;
76176;SDS011;64938;47.696;8.066;2022-11-24T01:01:01;9.67;;;3.33;;
76176;SDS011;64938;47.696;8.066;2022-11-24T01:03:28;12.30;;;3.60;;
76176;SDS011;64938;47.696;8.066;2022-11-24T01:05:54;11.53;;;3.80;;
76176;SDS011;64938;47.696;8.066;2022-11-24T01:08:19;9.47;;;4.70;;
76176;SDS011;64938;47.696;8.066;2022-11-24T01:10:45;14.10;;;4.07;;
76176;SDS011;64938;47.696;8.066;2022-11-24T01:13:11;13.80;;;5.20;;
76176;SDS011;64938;47.696;8.066;2022-11-24T01:15:37;13.67;;;4.10;;
76176;SDS011;64938;47.696;8.066;2022-11-24T01:18:03;7.77;;;2.53;;
76176;SDS011;64938;47.696;8.066;2022-11-24T01:20:29;10.13;;;3.23;;
76176;SDS011;64938;47.696;8.066;2022-11-24T01:22:56;15.53;;;3.20;;
76176;SDS011;64938;47.696;8.066;2022-11-24T01:25:21;16.73;;;3.30;;
76176;SDS011;64938;47.696;8.066;2022-11-24T01:27:47;11.63;;;4.30;;
76176;SDS011;64938;47.696;8.066;2022-11-24T01:30:12;17.93;;;3.60;;
76176;SDS011;64938;47.696;8.066;2022-11-24T01:32:38;16.00;;;4.40;;
76176;SDS011;64938;47.696;8.066;2022-11-24T01:35:04;18.60;;;3.87;;
76176;SDS011;64938;47.696;8.066;2022-11-24T01:37:30;8.30;;;4.00;;
76176;SDS011;64938;47.696;8.066;2022-11-24T01:39:56;11.17;;;4.07;;
76176;SDS011;64938;47.696;8.066;2022-11-24T01:42:22;11.40;;;4.80;;
76176;SDS011;64938;47.696;8.066;2022-11-24T01:44:49;14.90;;;4.10;;
76176;SDS011;64938;47.696;8.066;2022-11-24T01:47:37;15.60;;;3.93;;
76176;SDS011;64938;47.696;8.066;2022-11-24T01:50:07;11.63;;;3.80;;
76176;SDS011;64938;47.696;8.066;2022-11-24T01:52:40;15.30;;;3.60;;
76176;SDS011;64938;47.696;8.066;2022-11-24T01:55:11;12.27;;;3.53;;
76176;SDS011;64938;47.696;8.066;2022-11-24T01:57:41;13.00;;;3.90;;
76176;SDS011;64938;47.696;8.066;2022-11-24T02:00:10;14.00;;;4.37;;
76176;SDS011;64938;47.696;8.066;2022-11-24T02:02:37;12.07;;;4.27;;
76176;SDS011;64938;47.696;8.066;2022-11-24T02:05:05;11.67;;;4.03;;
76176;SDS011;64938;47.696;8.066;2022-11-24T02:07:34;13.83;;;3.23;;
76176;SDS011;64938;47.696;8.066;2022-11-24T02:10:02;9.97;;;4.60;;
76176;SDS011;64938;47.696;8.066;2022-11-24T02:12:30;11.30;;;3.80;;
76176;SDS011;64938;47.696;8.066;2022-11-24T02:14:57;9.33;;;3.27;;
76176;SDS011;64938;47.696;8.066;2022-11-24T02:17:23;8.57;;;3.80;;
76176;SDS011;64938;47.696;8.066;2022-11-24T02:20:05;12.00;;;4.13;;
76176;SDS011;64938;47.696;8.066;2022-11-24T02:22:43;12.27;;;3.63;;
76176;SDS011;64938;47.696;8.066;2022-11-24T02:28:33;13.20;;;3.77;;
76176;SDS011;64938;47.696;8.066;2022-11-24T02:30:59;15.70;;;3.97;;
76176;SDS011;64938;47.696;8.066;2022-11-24T02:33:25;17.87;;;3.97;;
76176;SDS011;64938;47.696;8.066;2022-11-24T02:35:51;10.40;;;4.00;;
76176;SDS011;64938;47.696;8.066;2022-11-24T02:38:17;15.33;;;4.00;;
76176;SDS011;64938;47.696;8.066;2022-11-24T02:40:45;17.30;;;4.63;;
76176;SDS011;64938;47.696;8.066;2022-11-24T02:43:13;18.33;;;4.50;;
76176;SDS011;64938;47.696;8.066;2022-11-24T02:45:41;16.67;;;4.50;;
76176;SDS011;64938;47.696;8.066;2022-11-24T02:48:06;12.90;;;3.93;;
76176;SDS011;64938;47.696;8.066;2022-11-24T02:50:34;12.80;;;4.27;;
76176;SDS011;64938;47.696;8.066;2022-11-24T02:53:00;14.23;;;3.90;;
76176;SDS011;64938;47.696;8.066;2022-11-24T02:55:26;15.60;;;5.43;;
76176;SDS011;64938;47.696;8.066;2022-11-24T02:57:52;15.67;;;4.47;;
76176;SDS011;64938;47.696;8.066;2022-11-24T03:00:17;12.13;;;4.17;;
76176;SDS011;64938;47.696;8.066;2022-11-24T03:02:43;11.37;;;4.60;;
76176;SDS011;64938;47.696;8.066;2022-11-24T03:05:09;11.03;;;3.53;;
76176;SDS011;64938;47.696;8.066;2022-11-24T03:07:36;16.50;;;4.03;;
76176;SDS011;64938;47.696;8.066;2022-11-24T03:10:02;11.63;;;3.57;;
76176;SDS011;64938;47.696;8.066;2022-11-24T03:12:28;11.97;;;3.40;;
76176;SDS011;64938;47.696;8.066;2022-11-24T03:14:54;11.20;;;3.20;;
76176;SDS011;64938;47.696;8.066;2022-11-24T03:17:19;13.73;;;4.10;;
76176;SDS011;64938;47.696;8.066;2022-11-24T03:19:45;10.57;;;3.67;;
76176;SDS011;64938;47.696;8.066;2022-11-24T03:22:11;13.43;;;3.60;;
76176;SDS011;64938;47.696;8.066;2022-11-24T03:24:37;12.03;;;3.77;;
76176;SDS011;64938;47.696;8.066;2022-11-24T03:27:03;12.50;;;3.33;;
76176;SDS011;64938;47.696;8.066;2022-11-24T03:29:29;16.77;;;4.23;;
76176;SDS011;64938;47.696;8.066;2022-11-24T03:31:54;12.97;;;3.97;;
76176;SDS011;64938;47.696;8.066;2022-11-24T03:34:20;23.20;;;3.97;;
76176;SDS011;64938;47.696;8.066;2022-11-24T03:36:46;14.33;;;3.50;;
76176;SDS011;64938;47.696;8.066;2022-11-24T03:39:11;12.80;;;2.90;;
76176;SDS011;64938;47.696;8.066;2022-11-24T03:41:37;22.93;;;3.97;;
76176;SDS011;64938;47.696;8.066;2022-11-24T03:44:03;15.93;;;2.93;;
76176;SDS011;64938;47.696;8.066;2022-11-24T03:46:29;10.20;;;2.90;;
76176;SDS011;64938;47.696;8.066;2022-11-24T03:48:54;16.83;;;3.70;;
76176;SDS011;64938;47.696;8.066;2022-11-24T03:51:20;20.53;;;4.13;;
76176;SDS011;64938;47.696;8.066;2022-11-24T03:53:45;17.83;;;3.67;;
76176;SDS011;64938;47.696;8.066;2022-11-24T03:56:11;15.50;;;3.47;;
76176;SDS011;64938;47.696;8.066;2022-11-24T03:58:37;22.13;;;3.93;;
76176;SDS011;64938;47.696;8.066;2022-11-24T04:01:02;15.07;;;3.33;;
76176;SDS011;64938;47.696;8.066;2022-11-24T04:03:28;16.60;;;4.03;;
76176;SDS011;64938;47.696;8.066;2022-11-24T04:05:54;14.00;;;4.33;;
76176;SDS011;64938;47.696;8.066;2022-11-24T04:08:19;15.90;;;5.00;;
76176;SDS011;64938;47.696;8.066;2022-11-24T04:10:48;13.93;;;3.20;;
76176;SDS011;64938;47.696;8.066;2022-11-24T04:13:15;14.73;;;3.40;;
76176;SDS011;64938;47.696;8.066;2022-11-24T04:15:42;14.20;;;3.27;;
76176;SDS011;64938;47.696;8.066;2022-11-24T04:18:09;18.67;;;3.80;;
76176;SDS011;64938;47.696;8.066;2022-11-24T04:20:35;9.00;;;2.90;;
76176;SDS011;64938;47.696;8.066;2022-11-24T04:23:04;12.30;;;2.90;;
76176;SDS011;64938;47.696;8.066;2022-11-24T04:25:30;10.97;;;3.10;;
76176;SDS011;64938;47.696;8.066;2022-11-24T04:27:56;11.67;;;3.30;;
76176;SDS011;64938;47.696;8.066;2022-11-24T04:30:22;10.00;;;2.70;;
76176;SDS011;64938;47.696;8.066;2022-11-24T04:32:48;13.23;;;3.07;;
76176;SDS011;64938;47.696;8.066;2022-11-24T04:35:14;14.30;;;3.03;;
76176;SDS011;64938;47.696;8.066;2022-11-24T04:37:40;15.60;;;3.00;;
76176;SDS011;64938;47.696;8.066;2022-11-24T04:40:06;12.77;;;3.20;;
76176;SDS011;64938;47.696;8.066;2022-11-24T04:42:33;14.57;;;3.63;;
76176;SDS011;64938;47.696;8.066;2022-11-24T04:44:58;13.00;;;3.40;;
76176;SDS011;64938;47.696;8.066;2022-11-24T04:47:25;18.93;;;4.30;;
76176;SDS011;64938;47.696;8.066;2022-11-24T04:49:51;14.43;;;3.50;;
76176;SDS011;64938;47.696;8.066;2022-11-24T04:52:17;14.80;;;4.83;;
76176;SDS011;64938;47.696;8.066;2022-11-24T04:54:43;12.17;;;4.37;;
76176;SDS011;64938;47.696;8.066;2022-11-24T04:57:18;13.47;;;4.43;;
76176;SDS011;64938;47.696;8.066;2022-11-24T04:59:45;14.03;;;4.30;;
76176;SDS011;64938;47.696;8.066;2022-11-24T05:02:11;13.60;;;3.33;;
76176;SDS011;64938;47.696;8.066;2022-11-24T05:04:36;15.63;;;3.43;;
76176;SDS011;64938;47.696;8.066;2022-11-24T05:07:02;13.20;;;3.40;;
76176;SDS011;64938;47.696;8.066;2022-11-24T05:09:28;8.63;;;3.27;;
76176;SDS011;64938;47.696;8.066;2022-11-24T05:11:54;16.73;;;3.30;;
76176;SDS011;64938;47.696;8.066;2022-11-24T05:14:19;15.07;;;3.20;;
76176;SDS011;64938;47.696;8.066;2022-11-24T05:16:45;17.27;;;4.43;;
76176;SDS011;64938;47.696;8.066;2022-11-24T05:19:11;24.10;;;3.43;;
76176;SDS011;64938;47.696;8.066;2022-11-24T05:21:37;10.60;;;3.40;;
76176;SDS011;64938;47.696;8.066;2022-11-24T05:24:03;18.80;;;4.17;;
76176;SDS011;64938;47.696;8.066;2022-11-24T05:26:28;21.83;;;4.97;;
76176;SDS011;64938;47.696;8.066;2022-11-24T05:28:54;13.23;;;4.40;;
76176;SDS011;64938;47.696;8.066;2022-11-24T05:31:20;22.50;;;3.50;;
76176;SDS011;64938;47.696;8.066;2022-11-24T05:33:45;18.87;;;4.10;;
76176;SDS011;64938;47.696;8.066;2022-11-24T05:36:11;22.57;;;4.00;;
76176;SDS011;64938;47.696;8.066;2022-11-24T05:38:57;13.33;;;2.83;;
76176;SDS011;64938;47.696;8.066;2022-11-24T05:41:22;17.77;;;5.03;;
76176;SDS011;64938;47.696;8.066;2022-11-24T05:43:48;18.10;;;3.63;;
76176;SDS011;64938;47.696;8.066;2022-11-24T05:46:13;17.27;;;3.70;;
76176;SDS011;64938;47.696;8.066;2022-11-24T05:48:39;15.63;;;3.00;;
76176;SDS011;64938;47.696;8.066;2022-11-24T05:51:05;15.70;;;2.80;;
76176;SDS011;64938;47.696;8.066;2022-11-24T05:53:30;13.47;;;3.40;;
76176;SDS011;64938;47.696;8.066;2022-11-24T05:55:56;14.97;;;3.50;;
76176;SDS011;64938;47.696;8.066;2022-11-24T05:58:21;15.80;;;3.57;;
76176;SDS011;64938;47.696;8.066;2022-11-24T06:00:47;9.67;;;3.27;;
76176;SDS011;64938;47.696;8.066;2022-11-24T06:03:13;10.90;;;2.63;;
76176;SDS011;64938;47.696;8.066;2022-11-24T06:05:39;10.10;;;3.47;;
76176;SDS011;64938;47.696;8.066;2022-11-24T06:08:10;16.83;;;5.10;;
76176;SDS011;64938;47.696;8.066;2022-11-24T06:10:36;10.80;;;3.20;;
76176;SDS011;64938;47.696;8.066;2022-11-24T06:13:04;17.73;;;3.50;;
76176;SDS011;64938;47.696;8.066;2022-11-24T06:15:31;18.93;;;3.73;;
76176;SDS011;64938;47.696;8.066;2022-11-24T06:17:57;10.93;;;2.40;;
76176;SDS011;64938;47.696;8.066;2022-11-24T06:20:23;8.80;;;2.87;;
76176;SDS011;64938;47.696;8.066;2022-11-24T06:22:49;15.07;;;3.00;;
76176;SDS011;64938;47.696;8.066;2022-11-24T06:25:15;9.00;;;2.57;;
76176;SDS011;64938;47.696;8.066;2022-11-24T06:27:41;12.73;;;2.90;;
76176;SDS011;64938;47.696;8.066;2022-11-24T06:30:06;12.13;;;3.67;;
76176;SDS011;64938;47.696;8.066;2022-11-24T06:32:32;11.73;;;2.57;;
76176;SDS011;64938;47.696;8.066;2022-11-24T06:34:58;12.43;;;3.20;;
76176;SDS011;64938;47.696;8.066;2022-11-24T06:37:24;13.50;;;2.73;;
76176;SDS011;64938;47.696;8.066;2022-11-24T06:39:49;13.27;;;3.10;;
76176;SDS011;64938;47.696;8.066;2022-11-24T06:42:15;8.33;;;2.77;;
76176;SDS011;64938;47.696;8.066;2022-11-24T06:44:44;8.67;;;2.50;;
76176;SDS011;64938;47.696;8.066;2022-11-24T06:47:11;17.17;;;3.30;;
76176;SDS011;64938;47.696;8.066;2022-11-24T06:49:39;13.07;;;3.40;;
76176;SDS011;64938;47.696;8.066;2022-11-24T06:52:05;12.90;;;3.67;;
76176;SDS011;64938;47.696;8.066;2022-11-24T06:54:30;13.80;;;3.57;;
76176;SDS011;64938;47.696;8.066;2022-11-24T06:56:56;11.40;;;3.37;;
76176;SDS011;64938;47.696;8.066;2022-11-24T06:59:23;14.80;;;2.80;;
76176;SDS011;64938;47.696;8.066;2022-11-24T07:01:49;15.77;;;3.77;;
76176;SDS011;64938;47.696;8.066;2022-11-24T07:04:14;16.37;;;4.47;;
76176;SDS011;64938;47.696;8.066;2022-11-24T07:06:41;10.53;;;4.00;;
76176;SDS011;64938;47.696;8.066;2022-11-24T07:09:07;11.43;;;3.10;;
76176;SDS011;64938;47.696;8.066;2022-11-24T07:11:33;15.40;;;4.10;;
76176;SDS011;64938;47.696;8.066;2022-11-24T07:13:59;15.43;;;6.47;;
76176;SDS011;64938;47.696;8.066;2022-11-24T07:16:26;10.97;;;3.70;;
76176;SDS011;64938;47.696;8.066;2022-11-24T07:18:53;13.93;;;2.63;;
76176;SDS011;64938;47.696;8.066;2022-11-24T07:21:20;9.80;;;2.70;;
76176;SDS011;64938;47.696;8.066;2022-11-24T07:23:47;13.23;;;3.00;;
76176;SDS011;64938;47.696;8.066;2022-11-24T07:26:13;12.43;;;2.63;;
76176;SDS011;64938;47.696;8.066;2022-11-24T07:28:39;8.93;;;2.60;;
76176;SDS011;64938;47.696;8.066;2022-11-24T07:31:05;11.23;;;2.43;;
76176;SDS011;64938;47.696;8.066;2022-11-24T07:33:32;6.70;;;2.03;;
76176;SDS011;64938;47.696;8.066;2022-11-24T07:35:58;11.13;;;2.63;;
76176;SDS011;64938;47.696;8.066;2022-11-24T07:38:24;7.20;;;1.90;;
76176;SDS011;64938;47.696;8.066;2022-11-24T07:40:50;6.60;;;2.00;;
76176;SDS011;64938;47.696;8.066;2022-11-24T07:43:16;13.27;;;2.60;;
76176;SDS011;64938;47.696;8.066;2022-11-24T07:45:41;9.20;;;2.00;;
76176;SDS011;64938;47.696;8.066;2022-11-24T07:48:07;8.47;;;1.90;;
76176;SDS011;64938;47.696;8.066;2022-11-24T07:50:34;8.80;;;1.90;;
76176;SDS011;64938;47.696;8.066;2022-11-24T07:53:01;5.10;;;1.27;;
76176;SDS011;64938;47.696;8.066;2022-11-24T07:55:28;4.90;;;1.60;;
76176;SDS011;64938;47.696;8.066;2022-11-24T07:57:53;2.63;;;1.00;;
76176;SDS011;64938;47.696;8.066;2022-11-24T08:00:22;4.53;;;1.50;;
76176;SDS011;64938;47.696;8.066;2022-11-24T08:02:48;3.40;;;1.30;;
76176;SDS011;64938;47.696;8.066;2022-11-24T08:05:13;1.83;;;1.13;;
76176;SDS011;64938;47.696;8.066;2022-11-24T08:07:39;2.80;;;1.53;;
76176;SDS011;64938;47.696;8.066;2022-11-24T08:10:06;3.67;;;1.10;;
76176;SDS011;64938;47.696;8.066;2022-11-24T08:12:32;3.50;;;1.73;;
76176;SDS011;64938;47.696;8.066;2022-11-24T08:14:58;2.80;;;1.30;;
76176;SDS011;64938;47.696;8.066;2022-11-24T08:17:23;4.80;;;1.40;;
76176;SDS011;64938;47.696;8.066;2022-11-24T08:19:49;2.20;;;1.17;;
76176;SDS011;64938;47.696;8.066;2022-11-24T08:22:15;5.03;;;1.40;;
76176;SDS011;64938;47.696;8.066;2022-11-24T08:24:42;3.73;;;1.53;;
76176;SDS011;64938;47.696;8.066;2022-11-24T08:27:12;2.53;;;1.30;;
76176;SDS011;64938;47.696;8.066;2022-11-24T08:29:39;3.97;;;1.53;;
76176;SDS011;64938;47.696;8.066;2022-11-24T08:32:04;3.07;;;1.40;;
76176;SDS011;64938;47.696;8.066;2022-11-24T08:34:30;6.77;;;1.87;;
76176;SDS011;64938;47.696;8.066;2022-11-24T08:36:56;4.77;;;1.83;;
76176;SDS011;64938;47.696;8.066;2022-11-24T08:39:21;4.10;;;1.70;;
76176;SDS011;64938;47.696;8.066;2022-11-24T08:41:47;5.33;;;1.80;;
76176;SDS011;64938;47.696;8.066;2022-11-24T08:44:13;5.30;;;1.97;;
76176;SDS011;64938;47.696;8.066;2022-11-24T08:46:42;7.63;;;2.47;;
76176;SDS011;64938;47.696;8.066;2022-11-24T08:49:10;5.37;;;2.60;;
76176;SDS011;64938;47.696;8.066;2022-11-24T08:51:35;5.47;;;2.20;;
76176;SDS011;64938;47.696;8.066;2022-11-24T08:54:01;6.33;;;2.23;;
76176;SDS011;64938;47.696;8.066;2022-11-24T08:56:28;2.83;;;1.80;;
76176;SDS011;64938;47.696;8.066;2022-11-24T08:58:55;3.10;;;1.50;;
76176;SDS011;64938;47.696;8.066;2022-11-24T09:01:22;8.10;;;2.40;;
76176;SDS011;64938;47.696;8.066;2022-11-24T09:03:48;7.17;;;1.70;;
76176;SDS011;64938;47.696;8.066;2022-11-24T09:06:14;3.13;;;1.80;;
76176;SDS011;64938;47.696;8.066;2022-11-24T09:08:41;6.20;;;1.77;;
76176;SDS011;64938;47.696;8.066;2022-11-24T09:11:08;9.77;;;2.10;;
76176;SDS011;64938;47.696;8.066;2022-11-24T09:13:35;5.00;;;1.87;;
76176;SDS011;64938;47.696;8.066;2022-11-24T09:16:05;5.93;;;1.70;;
76176;SDS011;64938;47.696;8.066;2022-11-24T09:18:34;6.07;;;1.47;;
76176;SDS011;64938;47.696;8.066;2022-11-24T09:23:46;1.40;;;0.90;;
76176;SDS011;64938;47.696;8.066;2022-11-24T09:26:14;2.90;;;1.93;;
76176;SDS011;64938;47.696;8.066;2022-11-24T09:28:42;2.37;;;1.03;;
76176;SDS011;64938;47.696;8.066;2022-11-24T09:31:09;2.93;;;1.13;;
76176;SDS011;64938;47.696;8.066;2022-11-24T09:33:54;3.60;;;0.97;;
76176;SDS011;64938;47.696;8.066;2022-11-24T09:36:21;7.20;;;1.33;;
76176;SDS011;64938;47.696;8.066;2022-11-24T09:38:47;4.17;;;1.30;;
76176;SDS011;64938;47.696;8.066;2022-11-24T09:49:28;7.67;;;1.80;;
76176;SDS011;64938;47.696;8.066;2022-11-24T09:51:57;7.00;;;2.33;;
76176;SDS011;64938;47.696;8.066;2022-11-24T09:54:27;8.03;;;2.90;;
76176;SDS011;64938;47.696;8.066;2022-11-24T09:56:54;8.93;;;2.07;;
76176;SDS011;64938;47.696;8.066;2022-11-24T09:59:22;5.27;;;1.80;;
76176;SDS011;64938;47.696;8.066;2022-11-24T10:01:49;2.87;;;1.47;;
76176;SDS011;64938;47.696;8.066;2022-11-24T10:04:33;4.50;;;1.80;;
76176;SDS011;64938;47.696;8.066;2022-11-24T10:12:54;5.17;;;1.90;;
76176;SDS011;64938;47.696;8.066;2022-11-24T10:15:46;5.90;;;2.00;;
76176;SDS011;64938;47.696;8.066;2022-11-24T10:23:51;12.50;;;3.20;;
76176;SDS011;64938;47.696;8.066;2022-11-24T10:26:43;6.53;;;2.60;;
76176;SDS011;64938;47.696;8.066;2022-11-24T10:29:19;7.00;;;1.80;;
76176;SDS011;64938;47.696;8.066;2022-11-24T10:31:51;8.43;;;1.80;;
76176;SDS011;64938;47.696;8.066;2022-11-24T10:34:21;6.40;;;2.00;;
76176;SDS011;64938;47.696;8.066;2022-11-24T10:42:43;7.23;;;2.13;;
76176;SDS011;64938;47.696;8.066;2022-11-24T10:47:49;6.93;;;2.10;;
76176;SDS011;64938;47.696;8.066;2022-11-24T10:50:23;7.53;;;2.03;;
76176;SDS011;64938;47.696;8.066;2022-11-24T10:55:58;9.87;;;2.60;;
76176;SDS011;64938;47.696;8.066;2022-11-24T10:58:27;4.90;;;2.07;;
76176;SDS011;64938;47.696;8.066;2022-11-24T11:03:52;7.53;;;2.20;;
76176;SDS011;64938;47.696;8.066;2022-11-24T11:11:45;7.77;;;1.80;;
76176;SDS011;64938;47.696;8.066;2022-11-24T11:14:27;9.03;;;2.33;;
76176;SDS011;64938;47.696;8.066;2022-11-24T11:16:55;6.80;;;2.40;;
76176;SDS011;64938;47.696;8.066;2022-11-24T11:19:42;6.53;;;2.70;;
76176;SDS011;64938;47.696;8.066;2022-11-24T11:24:45;7.73;;;2.03;;
76176;SDS011;64938;47.696;8.066;2022-11-24T11:29:51;5.10;;;2.30;;
76176;SDS011;64938;47.696;8.066;2022-11-24T11:34:55;3.87;;;1.50;;
76176;SDS011;64938;47.696;8.066;2022-11-24T11:37:23;5.47;;;1.73;;
76176;SDS011;64938;47.696;8.066;2022-11-24T11:39:52;6.77;;;2.13;;
76176;SDS011;64938;47.696;8.066;2022-11-24T11:42:37;9.40;;;1.87;;
76176;SDS011;64938;47.696;8.066;2022-11-24T11:45:15;9.97;;;1.80;;
76176;SDS011;64938;47.696;8.066;2022-11-24T11:47:47;5.17;;;2.03;;
76176;SDS011;64938;47.696;8.066;2022-11-24T11:50:19;6.80;;;2.00;;
76176;SDS011;64938;47.696;8.066;2022-11-24T12:00:52;4.87;;;1.53;;
76176;SDS011;64938;47.696;8.066;2022-11-24T12:06:19;5.50;;;1.80;;
76176;SDS011;64938;47.696;8.066;2022-11-24T12:09:12;7.37;;;1.90;;
76176;SDS011;64938;47.696;8.066;2022-11-24T12:11:43;5.33;;;1.70;;
76176;SDS011;64938;47.696;8.066;2022-11-24T12:14:16;6.20;;;1.90;;
76176;SDS011;64938;47.696;8.066;2022-11-24T12:17:13;5.90;;;1.90;;
76176;SDS011;64938;47.696;8.066;2022-11-24T12:19:55;6.23;;;1.50;;
76176;SDS011;64938;47.696;8.066;2022-11-24T12:36:56;7.43;;;2.07;;
76176;SDS011;64938;47.696;8.066;2022-11-24T12:39:34;9.10;;;2.23;;
76176;SDS011;64938;47.696;8.066;2022-11-24T12:45:14;4.90;;;2.00;;
76176;SDS011;64938;47.696;8.066;2022-11-24T12:50:18;6.10;;;2.37;;
76176;SDS011;64938;47.696;8.066;2022-11-24T12:55:26;5.97;;;1.70;;
76176;SDS011;64938;47.696;8.066;2022-11-24T12:57:58;6.90;;;2.20;;
76176;SDS011;64938;47.696;8.066;2022-11-24T13:06:48;7.87;;;1.80;;
76176;SDS011;64938;47.696;8.066;2022-11-24T13:09:17;4.30;;;1.70;;
76176;SDS011;64938;47.696;8.066;2022-11-24T13:11:44;5.83;;;1.90;;
76176;SDS011;64938;47.696;8.066;2022-11-24T13:16:57;9.20;;;2.30;;
76176;SDS011;64938;47.696;8.066;2022-11-24T13:19:25;4.17;;;1.80;;
76176;SDS011;64938;47.696;8.066;2022-11-24T13:21:59;3.77;;;1.77;;
76176;SDS011;64938;47.696;8.066;2022-11-24T13:24:39;6.97;;;2.03;;
76176;SDS011;64938;47.696;8.066;2022-11-24T13:29:49;4.90;;;1.60;;
76176;SDS011;64938;47.696;8.066;2022-11-24T13:34:53;7.77;;;2.00;;
76176;SDS011;64938;47.696;8.066;2022-11-24T13:53:34;8.30;;;2.47;;
76176;SDS011;64938;47.696;8.066;2022-11-24T13:58:56;3.20;;;1.50;;
76176;SDS011;64938;47.696;8.066;2022-11-24T14:06:40;8.20;;;1.83;;
76176;SDS011;64938;47.696;8.066;2022-11-24T14:14:48;6.00;;;2.07;;
76176;SDS011;64938;47.696;8.066;2022-11-24T14:19:52;5.50;;;2.60;;
76176;SDS011;64938;47.696;8.066;2022-11-24T14:22:20;8.10;;;2.40;;
76176;SDS011;64938;47.696;8.066;2022-11-24T14:24:56;6.97;;;2.27;;
76176;SDS011;64938;47.696;8.066;2022-11-24T14:27:26;9.83;;;1.80;;
76176;SDS011;64938;47.696;8.066;2022-11-24T14:32:58;8.93;;;2.57;;
76176;SDS011;64938;47.696;8.066;2022-11-24T14:35:26;8.67;;;2.17;;
76176;SDS011;64938;47.696;8.066;2022-11-24T14:37:53;7.07;;;2.50;;
76176;SDS011;64938;47.696;8.066;2022-11-24T14:43:14;8.50;;;1.80;;
76176;SDS011;64938;47.696;8.066;2022-11-24T14:48:32;8.63;;;1.97;;
76176;SDS011;64938;47.696;8.066;2022-11-24T14:51:20;7.30;;;1.93;;
76176;SDS011;64938;47.696;8.066;2022-11-24T14:53:48;6.10;;;1.80;;
76176;SDS011;64938;47.696;8.066;2022-11-24T14:56:24;6.30;;;2.93;;
76176;SDS011;64938;47.696;8.066;2022-11-24T14:59:21;7.33;;;1.90;;
76176;SDS011;64938;47.696;8.066;2022-11-24T15:01:48;7.43;;;2.23;;
76176;SDS011;64938;47.696;8.066;2022-11-24T15:04:23;5.53;;;1.97;;
76176;SDS011;64938;47.696;8.066;2022-11-24T15:09:54;3.63;;;1.77;;
76176;SDS011;64938;47.696;8.066;2022-11-24T15:12:28;4.10;;;2.13;;
76176;SDS011;64938;47.696;8.066;2022-11-24T15:15:18;4.63;;;1.83;;
76176;SDS011;64938;47.696;8.066;2022-11-24T15:17:45;6.13;;;1.80;;
76176;SDS011;64938;47.696;8.066;2022-11-24T15:28:37;8.70;;;2.50;;
76176;SDS011;64938;47.696;8.066;2022-11-24T15:31:03;6.43;;;2.10;;
76176;SDS011;64938;47.696;8.066;2022-11-24T15:33:30;3.43;;;1.50;;
76176;SDS011;64938;47.696;8.066;2022-11-24T15:35:57;5.70;;;1.60;;
76176;SDS011;64938;47.696;8.066;2022-11-24T15:38:23;4.43;;;1.57;;
76176;SDS011;64938;47.696;8.066;2022-11-24T15:40:49;5.43;;;2.10;;
76176;SDS011;64938;47.696;8.066;2022-11-24T15:43:25;5.70;;;1.80;;
76176;SDS011;64938;47.696;8.066;2022-11-24T15:46:08;6.87;;;1.80;;
76176;SDS011;64938;47.696;8.066;2022-11-24T15:48:34;6.37;;;2.37;;
76176;SDS011;64938;47.696;8.066;2022-11-24T15:51:01;5.17;;;2.40;;
76176;SDS011;64938;47.696;8.066;2022-11-24T15:53:30;5.30;;;1.77;;
76176;SDS011;64938;47.696;8.066;2022-11-24T15:55:57;4.93;;;1.67;;
76176;SDS011;64938;47.696;8.066;2022-11-24T15:58:24;4.73;;;1.90;;
76176;SDS011;64938;47.696;8.066;2022-11-24T16:00:49;6.87;;;1.67;;
76176;SDS011;64938;47.696;8.066;2022-11-24T16:03:17;5.53;;;2.50;;
76176;SDS011;64938;47.696;8.066;2022-11-24T16:05:45;8.07;;;1.87;;
76176;SDS011;64938;47.696;8.066;2022-11-24T16:08:13;6.93;;;1.97;;
76176;SDS011;64938;47.696;8.066;2022-11-24T16:10:41;5.60;;;2.27;;
76176;SDS011;64938;47.696;8.066;2022-11-24T16:13:09;5.70;;;2.57;;
76176;SDS011;64938;47.696;8.066;2022-11-24T16:15:35;7.87;;;3.00;;
76176;SDS011;64938;47.696;8.066;2022-11-24T16:18:03;7.30;;;2.60;;
76176;SDS011;64938;47.696;8.066;2022-11-24T16:20:31;4.63;;;2.17;;
76176;SDS011;64938;47.696;8.066;2022-11-24T16:22:59;7.37;;;2.90;;
76176;SDS011;64938;47.696;8.066;2022-11-24T16:25:24;57.40;;;32.17;;
76176;SDS011;64938;47.696;8.066;2022-11-24T16:27:51;41.83;;;25.00;;
76176;SDS011;64938;47.696;8.066;2022-11-24T16:30:17;9.20;;;3.70;;
76176;SDS011;64938;47.696;8.066;2022-11-24T16:32:42;8.37;;;3.07;;
76176;SDS011;64938;47.696;8.066;2022-11-24T16:35:09;13.93;;;2.90;;
76176;SDS011;64938;47.696;8.066;2022-11-24T16:37:34;7.27;;;2.50;;
76176;SDS011;64938;47.696;8.066;2022-11-24T16:40:00;5.80;;;2.23;;
76176;SDS011;64938;47.696;8.066;2022-11-24T16:42:27;8.70;;;3.00;;
76176;SDS011;64938;47.696;8.066;2022-11-24T16:44:53;15.77;;;4.50;;
76176;SDS011;64938;47.696;8.066;2022-11-24T16:47:19;5.73;;;2.83;;
76176;SDS011;64938;47.696;8.066;2022-11-24T16:49:45;13.33;;;4.63;;
76176;SDS011;64938;47.696;8.066;2022-11-24T16:52:13;7.93;;;3.37;;
76176;SDS011;64938;47.696;8.066;2022-11-24T16:54:40;12.23;;;4.43;;
76176;SDS011;64938;47.696;8.066;2022-11-24T16:57:06;9.97;;;3.43;;
76176;SDS011;64938;47.696;8.066;2022-11-24T16:59:33;12.87;;;3.37;;
76176;SDS011;64938;47.696;8.066;2022-11-24T17:01:58;7.37;;;3.93;;
76176;SDS011;64938;47.696;8.066;2022-11-24T17:04:24;14.10;;;4.63;;
76176;SDS011;64938;47.696;8.066;2022-11-24T17:06:50;14.30;;;4.53;;
76176;SDS011;64938;47.696;8.066;2022-11-24T17:09:16;12.53;;;4.03;;
76176;SDS011;64938;47.696;8.066;2022-11-24T17:11:44;7.57;;;4.00;;
76176;SDS011;64938;47.696;8.066;2022-11-24T17:14:11;13.67;;;4.57;;
76176;SDS011;64938;47.696;8.066;2022-11-24T17:16:42;19.10;;;6.50;;
76176;SDS011;64938;47.696;8.066;2022-11-24T17:19:08;20.97;;;7.70;;